Time;durP1;ratioP1;P1;durP2;ratioP2;P2;SDS_P1;SDS_P2;PMS_P1;PMS_P2;Temp;Humidity;BMP_temperature;BMP_pressure;BME280_temperature;BME280_humidity;BME280_pressure;Samples;Min_cycle;Max_cycle;Signal;HPM_P1;HPM_P2
2021/12/17 00:05:04;;;;;;;67.75;31.17;;;8.30;99.90;;;;;;4941649;28;112673;-64
2021/12/17 00:07:35;;;;;;;57.03;30.80;;;8.30;99.90;;;;;;4963197;28;112346;-63
2021/12/17 00:10:04;;;;;;;68.15;30.85;;;8.20;99.90;;;;;;4962768;28;113575;-65
2021/12/17 00:12:30;;;;;;;62.13;33.17;;;8.20;99.90;;;;;;4962577;28;113597;-64
2021/12/17 00:14:58;;;;;;;64.82;34.33;;;8.10;99.90;;;;;;4962807;28;113190;-65
2021/12/17 00:17:29;;;;;;;61.00;31.38;;;8.10;99.90;;;;;;4962298;28;112434;-66
2021/12/17 00:52:35;;;;;;;67.13;32.78;;;8.20;99.90;;;;;;4981082;28;113135;-63
2021/12/17 00:55:04;;;;;;;69.43;33.03;;;8.20;99.90;;;;;;4981482;28;114354;-64
2021/12/17 00:57:36;;;;;;;61.13;31.88;;;8.20;99.90;;;;;;4981789;28;112399;-64
2021/12/17 01:00:07;;;;;;;70.22;33.58;;;8.20;99.90;;;;;;4982075;28;112359;-64
2021/12/17 01:02:36;;;;;;;58.35;30.02;;;8.30;99.90;;;;;;4980654;28;113106;-65
2021/12/17 01:05:10;;;;;;;60.27;30.87;;;8.30;99.90;;;;;;4981531;28;113120;-65
2021/12/17 01:07:41;;;;;;;57.58;29.20;;;8.30;99.90;;;;;;4981946;28;112515;-64
2021/12/17 01:10:11;;;;;;;57.72;30.02;;;8.40;99.90;;;;;;4981295;28;112857;-64
2021/12/17 01:12:38;;;;;;;62.28;30.35;;;8.40;99.90;;;;;;4980781;28;114267;-64
2021/12/17 01:15:07;;;;;;;59.58;30.35;;;8.40;99.90;;;;;;4980175;28;113727;-65
2021/12/17 01:17:38;;;;;;;59.33;28.63;;;8.40;99.90;;;;;;4981163;28;112612;-65
2021/12/17 01:20:21;;;;;;;56.78;29.25;;;8.50;99.90;;;;;;4981826;28;112631;-65
2021/12/17 01:25:33;;;;;;;48.53;25.75;;;8.50;99.90;;;;;;4966418;28;112612;-64
2021/12/17 01:36:12;;;;;;;48.85;25.88;;;8.50;99.90;;;;;;4961764;28;112539;-68
2021/12/17 01:43:59;;;;;;;43.33;23.85;;;8.60;99.90;;;;;;4981405;28;112721;-67
2021/12/17 01:46:30;;;;;;;40.97;22.73;;;8.60;99.90;;;;;;4981765;28;112455;-66
2021/12/17 02:00:17;;;;;;;42.63;23.70;;;8.40;99.90;;;;;;4964734;28;113626;-67
2021/12/17 02:02:52;;;;;;;44.25;24.05;;;8.30;99.90;;;;;;4981881;28;113035;-67
2021/12/17 02:05:18;;;;;;;44.95;24.42;;;8.30;99.90;;;;;;4980888;28;113126;-65
2021/12/17 02:07:48;;;;;;;40.03;22.33;;;8.30;99.90;;;;;;4980581;28;113906;-67
2021/12/17 02:32:02;;;;;;;44.65;23.50;;;8.20;99.90;;;;;;4944001;28;112686;-67
2021/12/17 02:37:10;;;;;;;44.10;23.48;;;8.20;99.90;;;;;;4944097;28;112927;-66
2021/12/17 02:47:38;;;;;;;52.92;25.80;;;8.10;99.90;;;;;;4954069;28;112743;-64
2021/12/17 02:50:04;;;;;;;44.15;24.15;;;8.00;99.90;;;;;;4946184;28;112507;-64
2021/12/17 02:52:34;;;;;;;50.03;25.45;;;7.90;99.90;;;;;;4964291;28;112434;-64
2021/12/17 02:55:02;;;;;;;51.22;24.73;;;8.00;99.90;;;;;;4964844;28;112477;-64
2021/12/17 02:57:28;;;;;;;47.97;24.13;;;8.00;99.90;;;;;;4946367;28;113633;-64
2021/12/17 02:59:56;;;;;;;49.63;25.20;;;8.00;99.90;;;;;;4976261;28;114211;-64
2021/12/17 03:02:26;;;;;;;47.22;24.88;;;8.00;99.90;;;;;;4983019;28;112811;-65
2021/12/17 03:04:53;;;;;;;43.83;23.25;;;8.00;99.90;;;;;;4983768;28;112573;-64
2021/12/17 03:07:19;;;;;;;43.28;22.80;;;8.00;99.90;;;;;;4964995;28;113782;-64
2021/12/17 03:10:05;;;;;;;44.97;23.83;;;8.00;99.90;;;;;;4983166;28;113584;-64
2021/12/17 03:12:44;;;;;;;50.13;24.50;;;8.00;99.90;;;;;;4984203;28;112368;-64
2021/12/17 03:23:28;;;;;;;46.08;24.02;;;8.10;99.90;;;;;;4983835;28;112822;-64
2021/12/17 03:25:55;;;;;;;45.53;24.17;;;8.10;99.90;;;;;;4968417;28;112724;-64
2021/12/17 03:28:22;;;;;;;43.63;22.38;;;8.10;99.90;;;;;;4982678;28;114225;-64
2021/12/17 03:30:48;;;;;;;47.20;25.33;;;8.10;99.90;;;;;;4982578;28;113588;-64
2021/12/17 03:33:14;;;;;;;43.25;22.98;;;8.10;99.90;;;;;;4965488;28;112620;-65
2021/12/17 03:35:40;;;;;;;49.05;23.67;;;8.10;99.90;;;;;;4958914;28;112716;-64
2021/12/17 03:38:06;;;;;;;47.05;24.42;;;8.10;99.90;;;;;;4962552;28;114546;-64
2021/12/17 03:40:33;;;;;;;41.35;23.50;;;8.10;99.90;;;;;;4962702;28;113449;-65
2021/12/17 03:43:03;;;;;;;48.28;23.83;;;8.00;99.90;;;;;;4963710;28;112447;-63
2021/12/17 03:45:29;;;;;;;48.95;23.80;;;8.10;99.90;;;;;;4945894;28;112560;-64
2021/12/17 03:47:56;;;;;;;43.95;23.88;;;8.00;99.90;;;;;;4962421;28;114330;-64
2021/12/17 03:50:22;;;;;;;42.53;23.80;;;8.00;99.90;;;;;;4962308;28;112886;-64
2021/12/17 03:52:49;;;;;;;51.10;25.85;;;8.00;99.90;;;;;;4963515;28;112591;-66
2021/12/17 03:55:15;;;;;;;47.42;23.88;;;8.00;99.90;;;;;;4963664;28;112478;-66
2021/12/17 03:57:41;;;;;;;53.03;24.52;;;8.00;99.90;;;;;;4962712;28;113088;-65
2021/12/17 04:00:10;;;;;;;50.47;26.00;;;7.90;99.90;;;;;;4943500;28;115692;-65
2021/12/17 04:02:35;;;;;;;46.23;24.30;;;7.90;99.90;;;;;;4944987;28;112688;-64
2021/12/17 04:05:03;;;;;;;43.90;23.70;;;7.90;99.90;;;;;;4945627;28;112669;-66
2021/12/17 04:07:29;;;;;;;54.53;26.38;;;7.90;99.90;;;;;;4962839;28;113595;-63
2021/12/17 04:09:55;;;;;;;45.28;24.35;;;7.90;99.90;;;;;;4962846;28;112710;-64
2021/12/17 04:12:31;;;;;;;43.28;25.25;;;7.90;99.90;;;;;;4945035;28;112461;-65
2021/12/17 04:14:57;;;;;;;56.47;27.35;;;7.90;99.90;;;;;;4963213;28;112835;-64
2021/12/17 04:17:26;;;;;;;50.83;25.63;;;7.90;99.90;;;;;;4961264;28;113167;-64
2021/12/17 04:19:52;;;;;;;53.95;25.10;;;7.90;99.90;;;;;;4962486;28;114057;-65
2021/12/17 04:22:18;;;;;;;50.72;25.02;;;8.00;99.90;;;;;;4962684;28;112551;-65
2021/12/17 04:24:44;;;;;;;49.65;26.77;;;8.00;99.90;;;;;;4945333;28;112635;-63
2021/12/17 04:27:10;;;;;;;59.63;27.95;;;8.10;99.90;;;;;;4961684;28;114290;-65
2021/12/17 04:29:41;;;;;;;55.75;27.33;;;8.10;99.90;;;;;;4961336;28;114678;-64
2021/12/17 04:32:07;;;;;;;54.30;26.50;;;8.10;99.90;;;;;;4944966;28;112733;-64
2021/12/17 04:34:33;;;;;;;48.55;26.95;;;8.20;99.90;;;;;;4945522;28;113014;-64
2021/12/17 04:36:59;;;;;;;48.65;27.77;;;8.20;99.90;;;;;;4979332;28;114231;-65
2021/12/17 04:39:26;;;;;;;44.50;24.02;;;8.20;99.90;;;;;;4964631;28;112642;-64
2021/12/17 04:41:59;;;;;;;43.83;22.00;;;8.20;99.90;;;;;;4982542;28;112343;-64
2021/12/17 04:44:34;;;;;;;40.50;22.08;;;8.30;99.90;;;;;;4981872;28;112644;-64
2021/12/17 04:57:54;;;;;;;37.75;20.25;;;8.20;99.90;;;;;;4981681;28;112900;-65
2021/12/17 05:00:26;;;;;;;35.53;18.30;;;8.20;99.90;;;;;;4980806;28;114169;-64
2021/12/17 05:02:55;;;;;;;34.55;19.77;;;8.20;99.90;;;;;;4980943;28;112643;-65
2021/12/17 05:05:29;;;;;;;29.38;17.35;;;8.20;99.90;;;;;;4982477;28;112486;-64
2021/12/17 05:08:03;;;;;;;34.50;18.25;;;8.10;99.90;;;;;;4981126;28;114474;-64
2021/12/17 05:11:13;;;;;;;30.80;16.77;;;8.10;99.90;;;;;;4980786;28;114202;-64
2021/12/17 05:19:17;;;;;;;35.22;17.05;;;8.00;99.90;;;;;;4982080;28;112674;-65
2021/12/17 05:21:29;;;;;;;29.75;16.15;;;8.00;99.90;;;;;;4981258;28;112799;-64
2021/12/17 05:23:55;;;;;;;26.58;16.23;;;7.90;99.90;;;;;;4982407;28;112896;-65
2021/12/17 05:26:22;;;;;;;26.75;16.45;;;7.90;99.90;;;;;;4981786;28;112418;-64
2021/12/17 05:28:50;;;;;;;27.75;17.25;;;7.70;99.90;;;;;;4980862;28;112918;-65
2021/12/17 05:31:18;;;;;;;29.73;17.73;;;7.60;99.90;;;;;;4980843;28;112928;-65
2021/12/17 05:33:44;;;;;;;26.60;17.75;;;7.50;99.90;;;;;;4980956;28;112587;-64
2021/12/17 05:36:10;;;;;;;30.08;17.17;;;7.40;99.90;;;;;;4970466;28;112523;-64
2021/12/17 05:38:36;;;;;;;26.23;15.57;;;7.30;99.90;;;;;;4961495;22;113007;-67
2021/12/17 05:41:02;;;;;;;29.33;16.17;;;7.20;99.90;;;;;;4971717;28;113565;-69
2021/12/17 05:43:28;;;;;;;30.95;17.08;;;7.20;99.90;;;;;;4960678;28;112792;-67
2021/12/17 05:48:24;;;;;;;24.67;14.68;;;7.00;99.90;;;;;;4961656;28;112767;-67
2021/12/17 05:50:55;;;;;;;31.65;18.17;;;6.90;99.90;;;;;;4961128;28;113467;-68
2021/12/17 05:53:21;;;;;;;28.00;16.70;;;6.80;99.90;;;;;;4962125;28;112794;-68
2021/12/17 05:55:47;;;;;;;25.40;15.32;;;6.80;99.90;;;;;;4965811;28;112737;-67
2021/12/17 05:58:14;;;;;;;29.25;17.73;;;6.70;99.90;;;;;;4981326;28;113509;-68
2021/12/17 06:00:41;;;;;;;33.58;16.90;;;6.70;99.90;;;;;;4976260;28;113746;-67
2021/12/17 06:03:08;;;;;;;25.15;15.20;;;6.60;99.90;;;;;;4962536;28;112779;-67
2021/12/17 06:05:34;;;;;;;25.60;15.68;;;6.50;99.90;;;;;;4928006;28;112648;-67
2021/12/17 06:08:00;;;;;;;24.75;15.07;;;6.40;99.90;;;;;;4960945;28;113532;-67
2021/12/17 06:10:26;;;;;;;24.83;15.20;;;6.40;99.90;;;;;;4960351;28;112517;-68
2021/12/17 06:12:52;;;;;;;20.30;13.52;;;6.40;99.90;;;;;;4943497;28;113991;-67
2021/12/17 06:15:20;;;;;;;17.60;11.27;;;6.30;99.90;;;;;;4962149;28;112608;-68
2021/12/17 06:17:46;;;;;;;17.30;11.60;;;6.30;99.90;;;;;;4961444;28;112935;-68
2021/12/17 06:20:15;;;;;;;19.75;10.95;;;6.20;99.90;;;;;;4961379;28;113096;-67
2021/12/17 06:22:41;;;;;;;16.70;9.83;;;6.10;99.90;;;;;;4944865;28;112586;-68
2021/12/17 06:25:09;;;;;;;15.98;9.50;;;6.10;99.90;;;;;;4957269;28;113154;-67
2021/12/17 06:27:35;;;;;;;16.17;11.00;;;6.10;99.90;;;;;;4985117;28;113258;-67
2021/12/17 06:30:03;;;;;;;17.00;10.73;;;6.00;99.90;;;;;;4965845;28;113617;-67
2021/12/17 06:32:29;;;;;;;17.45;10.05;;;6.00;99.90;;;;;;4979857;28;112837;-67
2021/12/17 06:34:54;;;;;;;15.48;10.10;;;6.00;99.90;;;;;;4965140;28;112651;-68
2021/12/17 06:37:21;;;;;;;15.27;9.75;;;5.90;99.90;;;;;;4964262;28;113118;-68
2021/12/17 06:39:48;;;;;;;17.88;10.80;;;5.80;99.90;;;;;;4964470;28;112668;-67
2021/12/17 06:42:15;;;;;;;16.00;10.10;;;5.80;99.90;;;;;;4964325;28;112376;-67
2021/12/17 06:44:41;;;;;;;13.82;9.82;;;5.80;99.90;;;;;;4963996;28;112500;-67
2021/12/17 06:47:13;;;;;;;17.23;9.23;;;5.70;99.90;;;;;;4947239;28;113035;-68
2021/12/17 07:10:51;;;;;;;12.25;8.80;;;5.30;99.90;;;;;;4984286;28;112263;-65
2021/12/17 07:21:41;;;;;;;14.65;10.10;;;5.30;99.90;;;;;;4949222;28;112527;-67
2021/12/17 07:32:31;;;;;;;15.55;9.75;;;5.30;99.90;;;;;;4966757;28;112701;-65
2021/12/17 07:40:10;;;;;;;15.10;9.98;;;5.30;99.90;;;;;;4950500;28;112908;-65
2021/12/17 07:42:37;;;;;;;17.65;9.93;;;5.30;99.90;;;;;;4971932;28;112766;-65
2021/12/17 07:45:04;;;;;;;20.10;10.45;;;5.30;99.90;;;;;;4965372;28;113712;-65
2021/12/17 07:47:30;;;;;;;17.30;9.80;;;5.30;99.90;;;;;;4945762;28;113108;-66
2021/12/17 07:49:56;;;;;;;16.13;10.07;;;5.30;99.90;;;;;;4941964;28;113752;-65
2021/12/17 07:52:22;;;;;;;18.63;10.18;;;5.30;99.90;;;;;;4967703;28;112658;-65
2021/12/17 07:54:48;;;;;;;16.92;10.90;;;5.30;99.90;;;;;;4961489;28;112621;-65
2021/12/17 07:57:14;;;;;;;17.95;11.18;;;5.30;99.90;;;;;;4960222;28;112626;-67
2021/12/17 07:59:40;;;;;;;16.88;11.07;;;5.30;99.90;;;;;;4953229;28;114723;-64
2021/12/17 08:02:06;;;;;;;32.70;11.10;;;5.40;99.90;;;;;;4964339;28;113431;-67
2021/12/17 08:04:33;;;;;;;20.85;11.18;;;5.40;99.90;;;;;;4962198;28;112663;-67
2021/12/17 08:06:59;;;;;;;23.63;12.20;;;5.50;99.90;;;;;;4967207;22;112578;-62
2021/12/17 08:09:25;;;;;;;26.08;15.35;;;5.50;99.90;;;;;;4945508;28;113802;-62
2021/12/17 08:11:56;;;;;;;29.80;17.48;;;5.50;99.90;;;;;;4964493;28;112780;-64
2021/12/17 08:14:24;;;;;;;30.92;16.27;;;5.60;99.90;;;;;;4951329;28;112543;-63
2021/12/17 08:17:12;;;;;;;43.10;20.08;;;5.60;99.90;;;;;;4962745;28;112814;-65
2021/12/17 08:25:14;;;;;;;21.73;13.27;;;5.70;99.90;;;;;;4962305;28;112469;-67
2021/12/17 08:28:04;;;;;;;17.30;11.82;;;5.70;99.90;;;;;;4961449;28;112625;-61
2021/12/17 08:30:38;;;;;;;21.45;12.85;;;5.80;99.90;;;;;;4964286;28;113035;-64
2021/12/17 08:33:05;;;;;;;17.80;11.35;;;5.80;99.90;;;;;;4961416;28;113708;-62
2021/12/17 08:35:35;;;;;;;19.77;12.27;;;5.90;99.90;;;;;;4961699;28;112636;-63
2021/12/17 08:38:04;;;;;;;;;;;6.00;99.90;;;;;;4955466;28;113455;-64
2021/12/17 08:40:31;;;;;;;20.92;11.65;;;6.10;99.90;;;;;;4963411;28;113615;-63
2021/12/17 08:42:56;;;;;;;19.63;10.80;;;6.20;99.90;;;;;;4958198;28;114108;-62
2021/12/17 08:45:22;;;;;;;18.55;11.00;;;6.30;99.90;;;;;;4942619;28;112651;-64
2021/12/17 08:47:50;;;;;;;20.77;10.90;;;6.40;99.90;;;;;;4960757;28;112729;-67
2021/12/17 08:50:16;;;;;;;22.15;11.90;;;6.40;99.90;;;;;;4958891;28;114294;-66
2021/12/17 08:52:42;;;;;;;21.27;11.43;;;6.50;99.90;;;;;;4959777;28;112921;-62
2021/12/17 08:55:10;;;;;;;19.65;11.18;;;6.50;99.90;;;;;;4961855;28;113034;-64
2021/12/17 08:57:36;;;;;;;23.13;12.02;;;6.60;99.90;;;;;;4959551;28;112690;-63
2021/12/17 09:00:07;;;;;;;15.73;9.75;;;6.70;99.90;;;;;;4961490;28;113101;-63
2021/12/17 09:02:35;;;;;;;19.95;11.13;;;6.80;99.90;;;;;;4961883;28;113287;-65
2021/12/17 09:05:06;;;;;;;17.40;10.57;;;6.90;99.90;;;;;;4962423;28;112261;-65
2021/12/17 09:07:33;;;;;;;19.40;12.07;;;6.80;99.90;;;;;;4978926;28;112517;-64
2021/12/17 09:09:59;;;;;;;21.42;12.20;;;6.90;99.90;;;;;;4962618;28;113205;-63
2021/12/17 09:12:25;;;;;;;23.38;13.30;;;7.00;99.90;;;;;;4981034;28;113232;-64
2021/12/17 09:14:51;;;;;;;22.15;13.18;;;7.00;99.90;;;;;;4981441;28;112516;-65
2021/12/17 09:17:19;;;;;;;29.45;13.90;;;7.10;99.90;;;;;;4981658;28;112907;-63
2021/12/17 09:19:44;;;;;;;31.38;15.93;;;7.20;99.90;;;;;;4962798;28;114126;-63
2021/12/17 09:22:10;;;;;;;30.88;17.02;;;7.20;99.90;;;;;;4979535;28;112972;-64
2021/12/17 09:24:36;;;;;;;36.45;17.73;;;7.20;99.90;;;;;;4980813;28;112535;-65
2021/12/17 09:27:02;;;;;;;48.55;22.63;;;7.30;99.90;;;;;;4966725;22;112769;-63
2021/12/17 09:29:28;;;;;;;47.72;21.88;;;7.30;99.90;;;;;;4944728;28;113040;-64
2021/12/17 09:31:54;;;;;;;33.55;17.27;;;7.40;99.90;;;;;;4923410;28;112825;-63
2021/12/17 09:34:21;;;;;;;28.20;17.40;;;7.50;99.90;;;;;;4941684;28;112880;-63
2021/12/17 09:36:46;;;;;;;30.08;17.95;;;7.60;99.90;;;;;;4940826;28;112451;-65
2021/12/17 09:39:12;;;;;;;28.00;18.23;;;7.70;99.90;;;;;;4939748;28;114320;-61
2021/12/17 09:41:43;;;;;;;33.22;18.38;;;7.80;99.90;;;;;;4939785;28;114582;-63
2021/12/17 09:44:14;;;;;;;25.35;16.23;;;7.90;99.90;;;;;;4975972;22;112665;-65
2021/12/17 09:46:42;;;;;;;39.40;16.92;;;8.00;99.90;;;;;;4958733;28;112474;-64
2021/12/17 09:49:10;;;;;;;28.67;15.43;;;8.10;99.90;;;;;;4960512;28;114674;-66
2021/12/17 09:51:36;;;;;;;28.67;15.43;;;8.20;99.90;;;;;;4960514;28;112432;-64
2021/12/17 09:54:02;;;;;;;31.67;15.43;;;8.30;99.90;;;;;;4943665;28;112489;-67
2021/12/17 09:56:27;;;;;;;24.00;15.65;;;8.40;99.90;;;;;;4945172;28;112492;-64
2021/12/17 09:58:53;;;;;;;29.95;16.35;;;8.60;99.90;;;;;;4946185;28;115791;-68
2021/12/17 10:01:19;;;;;;;24.80;15.55;;;8.80;99.90;;;;;;4929897;28;113779;-65
2021/12/17 10:03:45;;;;;;;31.85;16.05;;;8.90;99.90;;;;;;4946561;28;112491;-65
2021/12/17 10:06:22;;;;;;;35.03;17.83;;;9.00;99.90;;;;;;4947089;28;113092;-67
2021/12/17 10:08:48;;;;;;;30.90;16.50;;;9.00;99.90;;;;;;4961199;22;115267;-63
2021/12/17 10:11:16;;;;;;;30.60;18.20;;;9.10;99.90;;;;;;4911301;28;113613;-63
2021/12/17 10:13:42;;;;;;;35.65;18.17;;;9.20;99.90;;;;;;4945345;28;112843;-64
2021/12/17 10:16:10;;;;;;;36.40;18.73;;;9.40;99.90;;;;;;4956429;23;114649;-64
2021/12/17 10:18:47;;;;;;;43.42;20.90;;;9.50;99.90;;;;;;4920307;28;114288;-68
2021/12/17 10:21:24;;;;;;;36.53;19.45;;;9.60;99.90;;;;;;4950160;28;114304;-65
2021/12/17 10:23:52;;;;;;;39.22;21.75;;;9.80;99.90;;;;;;4953447;28;113108;-64
2021/12/17 10:26:20;;;;;;;40.60;20.48;;;9.90;99.90;;;;;;4967325;28;112557;-65
2021/12/17 10:29:18;;;;;;;37.17;21.30;;;9.90;99.90;;;;;;4964955;28;114246;-65
2021/12/17 10:31:58;;;;;;;46.33;23.58;;;10.10;99.90;;;;;;4969498;28;112614;-65
2021/12/17 10:34:25;;;;;;;51.80;27.23;;;10.20;99.90;;;;;;4964642;28;112458;-65
2021/12/17 10:36:50;;;;;;;54.13;27.42;;;10.30;99.90;;;;;;4978256;28;112515;-66
2021/12/17 10:39:31;;;;;;;51.58;29.48;;;10.40;99.90;;;;;;4951682;28;112964;-67
2021/12/17 10:41:58;;;;;;;46.78;28.30;;;10.60;99.90;;;;;;4961382;28;113264;-65
2021/12/17 10:44:24;;;;;;;56.45;28.70;;;10.80;99.90;;;;;;4974219;28;112455;-65
2021/12/17 10:47:31;;;;;;;51.40;27.77;;;11.00;99.90;;;;;;4963286;28;112572;-66
2021/12/17 10:49:53;;;;;;;47.55;26.08;;;11.20;99.90;;;;;;4968656;28;114475;-65
2021/12/17 10:52:27;;;;;;;51.65;26.83;;;11.60;99.90;;;;;;4965447;28;114070;-65
2021/12/17 10:55:14;;;;;;;47.15;26.80;;;11.80;99.90;;;;;;4951177;28;112638;-65
2021/12/17 10:57:40;;;;;;;45.47;24.65;;;12.00;99.90;;;;;;4965630;28;112524;-65
2021/12/17 11:00:07;;;;;;;53.83;27.42;;;12.20;99.90;;;;;;4962942;28;112878;-65
2021/12/17 11:02:33;;;;;;;42.67;24.30;;;12.50;99.90;;;;;;4973505;28;112616;-65
2021/12/17 11:05:11;;;;;;;50.78;24.55;;;12.70;99.90;;;;;;4980075;28;112557;-67
2021/12/17 11:07:38;;;;;;;53.70;24.80;;;12.90;99.90;;;;;;4971397;28;112503;-66
2021/12/17 11:10:05;;;;;;;52.20;23.05;;;13.20;99.90;;;;;;4970421;28;113912;-67
2021/12/17 11:12:36;;;;;;;43.60;23.63;;;13.40;99.90;;;;;;4963575;28;112773;-65
2021/12/17 11:15:13;;;;;;;32.83;22.02;;;13.60;99.90;;;;;;4973453;28;112627;-67
2021/12/17 11:17:44;;;;;;;46.27;24.57;;;13.60;99.90;;;;;;4875133;28;2511412;-64
2021/12/17 11:20:52;;;;;;;42.83;23.83;;;13.60;99.90;;;;;;4968411;28;114767;-65
2021/12/17 11:23:22;;;;;;;39.03;23.02;;;13.60;99.90;;;;;;4919847;28;114314;-66
2021/12/17 11:25:50;;;;;;;44.33;21.38;;;13.50;99.90;;;;;;4970536;28;112663;-67
2021/12/17 11:28:16;;;;;;;38.17;20.23;;;13.50;99.90;;;;;;4966781;28;112466;-68
2021/12/17 11:30:45;;;;;;;39.03;21.42;;;13.50;99.90;;;;;;4943950;28;114242;-66
2021/12/17 11:33:11;;;;;;;42.20;21.67;;;13.60;99.90;;;;;;4956626;28;114436;-62
2021/12/17 11:35:42;;;;;;;29.83;19.60;;;13.80;99.90;;;;;;4951483;28;112604;-62
2021/12/17 11:38:12;;;;;;;41.13;21.40;;;14.00;99.90;;;;;;4968395;28;112484;-63
2021/12/17 11:40:56;;;;;;;33.75;19.67;;;14.30;99.90;;;;;;4962547;28;113875;-63
2021/12/17 11:43:53;;;;;;;36.47;20.85;;;14.70;99.90;;;;;;4957193;28;112706;-62
2021/12/17 11:46:26;;;;;;;35.40;19.77;;;15.10;99.90;;;;;;4973190;28;112523;-61
2021/12/17 11:49:18;;;;;;;37.33;21.77;;;15.80;99.90;;;;;;4950160;28;112613;-62
2021/12/17 11:51:53;;;;;;;29.40;18.27;;;16.40;99.90;;;;;;4953690;28;113179;-62
2021/12/17 11:54:26;;;;;;;32.85;17.85;;;17.00;99.90;;;;;;4960879;28;112557;-62
2021/12/17 11:56:54;;;;;;;28.65;17.92;;;17.20;99.90;;;;;;4947739;28;112489;-61
2021/12/17 11:59:25;;;;;;;38.78;19.05;;;17.40;99.90;;;;;;4965761;28;113961;-62
2021/12/17 12:01:57;;;;;;;44.42;20.70;;;17.70;99.90;;;;;;4969076;28;113280;-60
2021/12/17 12:04:32;;;;;;;35.22;17.95;;;18.20;99.90;;;;;;4964882;28;114795;-63
2021/12/17 12:07:04;;;;;;;34.80;19.27;;;18.70;99.90;;;;;;4962169;28;112938;-63
2021/12/17 12:09:54;;;;;;;33.55;17.35;;;19.30;99.90;;;;;;4962851;28;112302;-62
2021/12/17 12:12:21;;;;;;;30.77;15.98;;;19.70;99.90;;;;;;4972400;28;113944;-63
2021/12/17 12:14:46;;;;;;;33.58;18.85;;;19.90;99.90;;;;;;4961119;28;113063;-62
2021/12/17 12:17:12;;;;;;;30.33;16.85;;;20.30;99.90;;;;;;4963366;28;112683;-58
2021/12/17 12:19:49;;;;;;;26.15;17.27;;;20.50;99.90;;;;;;4971426;28;112519;-61
2021/12/17 12:22:29;;;;;;;28.08;16.13;;;21.00;99.90;;;;;;4957112;28;113355;-62
2021/12/17 12:25:27;;;;;;;31.35;18.02;;;21.50;99.90;;;;;;4958520;28;112664;-61
2021/12/17 12:27:53;;;;;;;23.50;15.13;;;22.00;99.90;;;;;;4958469;28;112704;-63
2021/12/17 12:30:36;;;;;;;28.25;15.85;;;22.40;99.90;;;;;;4970828;28;112588;-63
2021/12/17 12:33:09;;;;;;;39.65;17.27;;;22.70;99.90;;;;;;4951398;28;113444;-61
2021/12/17 12:35:36;;;;;;;32.33;14.25;;;22.90;98.90;;;;;;4959759;28;114444;-61
2021/12/17 12:38:15;;;;;;;25.33;15.52;;;23.20;97.60;;;;;;4961090;28;112688;-62
2021/12/17 12:40:55;;;;;;;30.23;16.25;;;23.50;97.10;;;;;;5018562;28;112522;-62
2021/12/17 12:43:34;;;;;;;53.53;18.23;;;24.00;95.80;;;;;;5019150;28;112464;-63
2021/12/17 12:46:00;;;;;;;;;;;24.20;94.50;;;;;;5020643;28;112428;-63
2021/12/17 12:48:33;;;;;;;39.40;17.48;;;24.50;93.60;;;;;;5021235;28;113120;-63
2021/12/17 12:51:21;;;;;;;39.08;16.38;;;24.80;92.60;;;;;;5018339;27;112474;-62
2021/12/17 12:54:08;;;;;;;28.50;14.00;;;24.90;91.20;;;;;;5007041;27;113686;-62
2021/12/17 12:56:39;;;;;;;27.13;15.02;;;25.00;90.60;;;;;;5017861;28;112605;-62
2021/12/17 12:59:06;;;;;;;24.63;13.80;;;25.20;89.70;;;;;;5018213;28;113373;-62
2021/12/17 13:01:32;;;;;;;19.35;13.30;;;25.50;87.50;;;;;;5017464;28;112685;-62
2021/12/17 13:03:58;;;;;;;29.40;12.77;;;25.60;88.00;;;;;;5018570;28;112744;-60
2021/12/17 13:06:25;;;;;;;24.10;14.00;;;26.00;85.80;;;;;;5013864;28;112710;-63
2021/12/17 13:08:59;;;;;;;27.45;18.35;;;26.10;82.70;;;;;;5016241;27;113504;-63
2021/12/17 13:11:26;;;;;;;25.88;14.25;;;26.30;82.00;;;;;;5007779;28;113616;-64
2021/12/17 13:13:54;;;;;;;26.45;15.45;;;26.50;82.20;;;;;;5019296;27;112418;-63
2021/12/17 13:24:23;;;;;;;25.00;14.90;;;27.10;77.10;;;;;;5015176;28;112686;-63
2021/12/17 13:26:51;;;;;;;22.23;13.50;;;27.60;75.30;;;;;;5003073;28;112550;-64
2021/12/17 13:29:21;;;;;;;28.73;14.30;;;27.70;74.40;;;;;;5017767;28;114957;-61
2021/12/17 13:31:52;;;;;;;26.63;13.95;;;27.80;73.90;;;;;;5009820;27;113535;-62
2021/12/17 13:34:18;;;;;;;24.42;14.50;;;28.10;72.20;;;;;;5015722;28;112875;-61
2021/12/17 13:36:55;;;;;;;23.17;14.55;;;28.20;71.30;;;;;;5009004;27;112497;-61
2021/12/17 13:39:23;;;;;;;25.95;12.65;;;28.60;70.10;;;;;;5016923;28;114261;-62
2021/12/17 13:41:49;;;;;;;19.75;13.25;;;28.60;69.30;;;;;;5018375;28;112563;-63
2021/12/17 13:44:44;;;;;;;19.85;12.35;;;28.70;68.70;;;;;;5019413;28;112582;-63
2021/12/17 13:47:13;;;;;;;25.30;13.73;;;28.90;68.40;;;;;;5006323;28;112324;-61
2021/12/17 13:49:46;;;;;;;25.65;13.93;;;28.80;67.80;;;;;;5018497;28;113082;-64
2021/12/17 13:52:12;;;;;;;23.15;13.45;;;28.70;66.30;;;;;;5005148;28;112888;-62
2021/12/17 13:54:38;;;;;;;19.73;12.18;;;28.70;67.10;;;;;;5005495;28;112756;-61
2021/12/17 13:57:06;;;;;;;20.80;11.38;;;28.50;66.60;;;;;;5004993;28;112635;-62
2021/12/17 13:59:35;;;;;;;27.23;13.40;;;28.60;66.40;;;;;;5005778;22;113644;-63
2021/12/17 14:02:17;;;;;;;24.13;13.03;;;28.70;66.10;;;;;;4960436;28;114126;-66
2021/12/17 14:05:02;;;;;;;23.02;12.32;;;28.50;65.20;;;;;;4964773;28;112324;-70
2021/12/17 14:07:30;;;;;;;28.48;14.10;;;28.20;65.40;;;;;;4962696;28;112788;-68
2021/12/17 14:10:03;;;;;;;22.73;13.18;;;28.20;64.90;;;;;;4965217;28;112967;-70
2021/12/17 14:12:33;;;;;;;23.77;13.25;;;28.00;65.80;;;;;;4964715;28;113008;-72
2021/12/17 14:15:19;;;;;;;;;;;27.90;65.30;;;;;;4954932;28;112649;-71
2021/12/17 14:17:52;;;;;;;42.60;15.70;;;27.80;64.90;;;;;;4966882;28;112642;-69
2021/12/17 14:20:21;;;;;;;28.88;13.85;;;27.70;65.50;;;;;;4964937;28;112992;-70
2021/12/17 14:23:04;;;;;;;26.40;13.87;;;27.70;65.60;;;;;;4948481;28;112854;-68
2021/12/17 14:25:39;;;;;;;21.80;13.52;;;27.60;65.00;;;;;;4964436;28;112365;-71
2021/12/17 14:28:32;;;;;;;27.60;13.55;;;27.50;65.30;;;;;;4965026;28;112309;-71
2021/12/17 14:31:05;;;;;;;25.00;12.95;;;27.30;65.20;;;;;;4961823;28;112977;-69
2021/12/17 14:33:33;;;;;;;21.23;13.15;;;27.10;65.40;;;;;;4965338;28;112897;-70
2021/12/17 14:36:12;;;;;;;23.40;13.73;;;26.90;66.10;;;;;;4970514;22;115052;-62
2021/12/17 14:38:41;;;;;;;20.00;12.50;;;27.10;66.40;;;;;;4963612;28;112753;-61
2021/12/17 14:41:12;;;;;;;30.08;14.68;;;27.20;66.30;;;;;;4969003;28;114267;-62
2021/12/17 14:44:01;;;;;;;22.88;14.57;;;27.20;65.00;;;;;;4961188;28;112614;-61
2021/12/17 14:47:02;;;;;;;33.47;15.68;;;26.70;65.10;;;;;;4970217;22;113372;-68
2021/12/17 15:00:51;;;;;;;28.67;15.05;;;20.30;75.70;;;;;;4964513;28;112457;-63
2021/12/17 15:03:59;;;;;;;24.90;15.02;;;19.60;78.20;;;;;;4944891;28;113416;-62
2021/12/17 15:06:02;;;;;;;25.08;13.68;;;19.10;80.20;;;;;;4956635;28;112601;-62
2021/12/17 15:08:28;;;;;;;34.33;16.77;;;18.50;83.10;;;;;;4963704;28;112910;-62
2021/12/17 15:10:55;;;;;;;48.08;15.23;;;18.10;84.50;;;;;;4964880;28;112295;-60
2021/12/17 15:13:21;;;;;;;31.58;15.35;;;17.80;88.00;;;;;;4963827;28;113609;-61
2021/12/17 15:15:52;;;;;;;30.15;14.88;;;17.50;88.50;;;;;;4963839;28;114368;-64
2021/12/17 15:18:19;;;;;;;44.10;16.02;;;17.10;92.80;;;;;;4963840;28;112901;-62
2021/12/17 15:20:50;;;;;;;35.35;15.07;;;16.90;95.20;;;;;;4964250;28;113304;-57
2021/12/17 15:23:17;;;;;;;44.33;15.93;;;16.60;97.00;;;;;;4963764;28;113194;-62
2021/12/17 15:25:44;;;;;;;37.25;14.85;;;16.30;98.50;;;;;;4970263;28;113509;-64
2021/12/17 15:28:13;;;;;;;41.25;16.50;;;16.10;99.90;;;;;;4962084;28;112548;-61
2021/12/17 15:30:42;;;;;;;27.98;15.95;;;15.90;99.90;;;;;;4963885;28;112884;-63
2021/12/17 15:33:10;;;;;;;47.83;16.70;;;15.70;99.90;;;;;;4963227;28;114467;-64
2021/12/17 15:35:37;;;;;;;38.28;16.80;;;15.50;99.90;;;;;;4963098;28;112532;-61
2021/12/17 15:38:07;;;;;;;33.55;15.45;;;15.40;99.90;;;;;;4963684;28;112406;-62
2021/12/17 15:40:35;;;;;;;35.20;15.85;;;15.20;99.90;;;;;;4964306;28;112418;-62
2021/12/17 15:43:04;;;;;;;31.15;15.73;;;15.10;99.90;;;;;;4963419;28;113229;-61
2021/12/17 15:45:39;;;;;;;42.27;18.20;;;15.00;99.90;;;;;;4957758;28;114081;-61
2021/12/17 15:48:06;;;;;;;37.97;16.02;;;14.90;99.90;;;;;;4959516;28;112626;-62
2021/12/17 15:50:32;;;;;;;32.67;17.08;;;14.80;99.90;;;;;;4961943;28;112566;-63